Nissos Mykonos — SYJZ — position and weather

sailwx.info

Track history (hours):
 
Tides and Currents Weather Stations Pressure Air Temp Water Temp Dewpoint Dewpoint Depression Visibility Wind Speed Wind Dir Waves Ship Positions

Nissos Mykonos

Last reported at 2016-Aug-29 22:33 UTC. Time now 2016-Aug-29 23:35 UTC.
Position N 37°57' E 023°38'.

Length 141 m; draft 5.2 m.

Type: Passenger vessel. MMSI: 240389000.

Date/timePositionNaut miles runAvg speedWind from/ knotsBaromVisibWave heightAir tempDewpointWater temp
2016-Aug-29 22:33N 37°57' E 023°38'1919.1
2016-Aug-29 21:33N 37°40' E 023°50'4823.8
2016-Aug-29 19:34N 37°31' E 024°49'1212.0
2016-Aug-29 18:34N 37°27' E 025°03'1615.5
2016-Aug-29 17:33N 37°31' E 025°22'4 0.4
2016-Aug-29 09:33N 37°28' E 025°19'6719.6
2016-Aug-29 06:09N 37°37' E 023°56'1423.9
2016-Aug-29 05:34N 37°44' E 023°41'1312.8
2016-Aug-29 04:33N 37°57' E 023°38'0 0.0
2016-Aug-29 03:34N 37°57' E 023°38'0 0.0
2016-Aug-29 02:34N 37°57' E 023°38'0 0.0
2016-Aug-29 01:34N 37°57' E 023°38'0 0.0
2016-Aug-29 00:33N 37°57' E 023°38'0 0.0
2016-Aug-28 23:34N 37°57' E 023°38'0 0.0
2016-Aug-28 22:34N 37°57' E 023°38'1717.3
2016-Aug-28 21:34N 37°41' E 023°48'4823.9
2016-Aug-28 19:33N 37°31' E 024°47'1312.7
2016-Aug-28 18:31N 37°27' E 025°03'1516.0
2016-Aug-28 17:33N 37°31' E 025°22'3 0.4
2016-Aug-28 09:33N 37°28' E 025°19'6619.6
2016-Aug-28 06:10N 37°36' E 023°56'1423.9
2016-Aug-28 05:34N 37°44' E 023°41'1312.9
2016-Aug-28 04:33N 37°57' E 023°38'0 0.0
2016-Aug-28 03:33N 37°57' E 023°38'0 0.0
2016-Aug-28 02:34N 37°57' E 023°38'0 0.0
2016-Aug-28 01:33N 37°57' E 023°38'0 0.0
2016-Aug-28 00:33N 37°57' E 023°38'0 0.0
2016-Aug-27 23:34N 37°57' E 023°38'0 0.0
2016-Aug-27 22:34N 37°57' E 023°38'0 0.0
2016-Aug-27 21:34N 37°57' E 023°38'1716.6
2016-Aug-27 20:34N 37°41' E 023°46'4823.9
2016-Aug-27 18:33N 37°32' E 024°46'1412.4
2016-Aug-27 17:23N 37°27' E 025°03'1315.1
2016-Aug-27 16:33N 37°28' E 025°18'1 0.1
2016-Aug-27 09:34N 37°28' E 025°19'6619.5
2016-Aug-27 06:09N 37°37' E 023°56'2415.3
2016-Aug-27 04:33N 37°57' E 023°38'0 0.0
2016-Aug-27 03:33N 37°57' E 023°38'0 0.0
2016-Aug-27 02:33N 37°57' E 023°38'0 0.0
2016-Aug-27 01:33N 37°57' E 023°38'0 0.0
2016-Aug-27 00:34N 37°57' E 023°38'0 0.0
2016-Aug-26 23:33N 37°57' E 023°38'1312.8
2016-Aug-26 22:34N 37°45' E 023°44'2423.8
2016-Aug-26 21:34N 37°34' E 024°10'2423.5
2016-Aug-26 20:31N 37°33' E 024°41'1815.3
2016-Aug-26 19:22N 37°27' E 025°02'1417.1
2016-Aug-26 18:34N 37°28' E 025°19'2 0.3
2016-Aug-26 10:13N 37°30' E 025°18'5 7.3
2016-Aug-26 09:30N 37°28' E 025°12'1813.5
2016-Aug-26 08:11N 37°31' E 024°50'4321.9
2016-Aug-26 06:12N 37°38' E 023°56'2414.3
2016-Aug-26 04:33N 37°57' E 023°38'0 0.0
2016-Aug-26 03:33N 37°57' E 023°38'0 0.0
2016-Aug-26 02:33N 37°57' E 023°38'0 0.0
2016-Aug-26 01:33N 37°57' E 023°38'0 0.0
2016-Aug-26 00:33N 37°57' E 023°38'0 0.0
2016-Aug-25 22:33N 37°57' E 023°38'0 0.0
2016-Aug-25 21:33N 37°57' E 023°38'10 9.8
2016-Aug-25 20:34N 37°47' E 023°42'2623.8
2016-Aug-25 19:28N 37°33' E 024°10'2323.6
2016-Aug-25 18:30N 37°32' E 024°39'1814.2
2016-Aug-25 17:14N 37°27' E 025°00'1522.7
2016-Aug-25 16:33N 37°28' E 025°19'1212.2
2016-Aug-25 15:34N 37°31' E 025°34'2 0.3
2016-Aug-25 10:32N 37°33' E 025°35'1313.7
2016-Aug-25 09:34N 37°28' E 025°19'2315.5
2016-Aug-25 08:06N 37°31' E 024°51'4423.4
2016-Aug-25 06:12N 37°37' E 023°56'2414.7
2016-Aug-25 04:33N 37°57' E 023°38'0 0.0
2016-Aug-25 03:34N 37°57' E 023°38'3 2.7
2016-Aug-25 02:34N 37°54' E 023°38'6922.5
2016-Aug-24 23:30N 37°31' E 024°60'2324.0
2016-Aug-24 22:33N 37°34' E 025°28'15410.8
2016-Aug-24 08:18N 40°06' E 024°52'1824.8
2016-Aug-24 07:33N 40°22' E 024°41'2424.3
2016-Aug-24 06:34N 40°44' E 024°28'12 5.8
2016-Aug-24 04:33N 40°56' E 024°25'2 2.3
2016-Aug-24 03:34N 40°54' E 024°25'2524.6
2016-Aug-24 02:34N 40°30' E 024°35'2625.1
2016-Aug-24 01:31N 40°07' E 024°51'16110.1
2016-Aug-23 09:34N 37°28' E 025°19'6620.0
2016-Aug-23 06:15N 37°36' E 023°57'1623.2
2016-Aug-23 05:34N 37°45' E 023°40'1211.7
2016-Aug-23 04:33N 37°57' E 023°38'0 0.0
2016-Aug-23 03:34N 37°57' E 023°38'0 0.0
2016-Aug-23 02:33N 37°57' E 023°38'0 0.0
2016-Aug-23 01:33N 37°57' E 023°38'0 0.0
2016-Aug-23 00:33N 37°57' E 023°38'0 0.0
2016-Aug-22 23:34N 37°57' E 023°38'1 1.5
2016-Aug-22 22:33N 37°55' E 023°37'2221.7
2016-Aug-22 21:33N 37°39' E 023°54'6220.6
2016-Aug-22 18:34N 37°27' E 025°11'1514.6
2016-Aug-22 17:33N 37°32' E 025°28'8 1.0
2016-Aug-22 09:33N 37°28' E 025°19'6519.7
2016-Aug-22 06:16N 37°36' E 023°58'1723.7
2016-Aug-22 05:34N 37°45' E 023°40'1211.8
2016-Aug-22 04:34N 37°57' E 023°38'0 0.0
2016-Aug-22 03:34N 37°57' E 023°38'0 0.0
2016-Aug-22 02:34N 37°57' E 023°38'0 0.0
2016-Aug-22 01:34N 37°57' E 023°38'0 0.0
2016-Aug-22 00:34N 37°57' E 023°38'0 0.0
2016-Aug-21 23:34N 37°57' E 023°38'1 1.4
2016-Aug-21 22:33N 37°56' E 023°37'2221.5
2016-Aug-21 21:33N 37°39' E 023°54'6019.9
2016-Aug-21 18:34N 37°27' E 025°08'1716.0
2016-Aug-21 17:31N 37°32' E 025°28'8 1.0
2016-Aug-21 09:34N 37°28' E 025°19'6719.7
2016-Aug-21 06:10N 37°37' E 023°56'1423.7
2016-Aug-21 05:34N 37°44' E 023°40'1312.7
2016-Aug-21 04:33N 37°57' E 023°38'0 0.0
2016-Aug-21 03:34N 37°57' E 023°38'0 0.0
2016-Aug-21 02:33N 37°57' E 023°38'0 0.0
2016-Aug-21 01:34N 37°57' E 023°38'0 0.0
2016-Aug-21 00:33N 37°57' E 023°38'0 0.0
2016-Aug-20 23:34N 37°57' E 023°38'0 0.0
2016-Aug-20 22:34N 37°57' E 023°38'0 0.0
2016-Aug-20 21:34N 37°57' E 023°38'1312.6
2016-Aug-20 20:34N 37°45' E 023°43'5023.7
2016-Aug-20 18:28N 37°31' E 024°44'1211.2
2016-Aug-20 17:20N 37°27' E 024°59'1721.3
2016-Aug-20 16:34N 37°28' E 025°19'15 2.5
2016-Aug-20 10:33N 37°35' E 025°36'1514.8
2016-Aug-20 09:34N 37°28' E 025°19'1812.7
2016-Aug-20 08:09N 37°29' E 024°57'4924.2
2016-Aug-20 06:07N 37°37' E 023°56'1424.1
2016-Aug-20 05:33N 37°43' E 023°41'1313.3
2016-Aug-20 04:33N 37°57' E 023°38'0 0.0
2016-Aug-20 03:33N 37°57' E 023°38'0 0.0
2016-Aug-20 02:33N 37°57' E 023°38'0 0.0
2016-Aug-20 01:33N 37°57' E 023°38'0 0.0
2016-Aug-20 00:33N 37°57' E 023°38'0 0.0
2016-Aug-19 23:33N 37°57' E 023°38'  
Track history (hours):
 
Tides and Currents Weather Stations Pressure Air Temp Water Temp Dewpoint Dewpoint Depression Visibility Wind Speed Wind Dir Waves Ship Positions

Nissos Mykonos

Last reported at 2016-Aug-29 22:33 UTC. Time now 2016-Aug-29 23:35 UTC.
Position N 37°57' E 023°38'.

Length 141 m; draft 5.2 m.

Type: Passenger vessel. MMSI: 240389000.

Date/timePositionNaut miles runAvg speedWind from/ knotsBaromVisibWave heightAir tempDewpointWater temp
2016-Aug-29 22:33N 37°57' E 023°38'1919.1
2016-Aug-29 21:33N 37°40' E 023°50'4823.8
2016-Aug-29 19:34N 37°31' E 024°49'1212.0
2016-Aug-29 18:34N 37°27' E 025°03'1615.5
2016-Aug-29 17:33N 37°31' E 025°22'4 0.4
2016-Aug-29 09:33N 37°28' E 025°19'6719.6
2016-Aug-29 06:09N 37°37' E 023°56'1423.9
2016-Aug-29 05:34N 37°44' E 023°41'1312.8
2016-Aug-29 04:33N 37°57' E 023°38'0 0.0
2016-Aug-29 03:34N 37°57' E 023°38'0 0.0
2016-Aug-29 02:34N 37°57' E 023°38'0 0.0
2016-Aug-29 01:34N 37°57' E 023°38'0 0.0
2016-Aug-29 00:33N 37°57' E 023°38'0 0.0
2016-Aug-28 23:34N 37°57' E 023°38'0 0.0
2016-Aug-28 22:34N 37°57' E 023°38'1717.3
2016-Aug-28 21:34N 37°41' E 023°48'4823.9
2016-Aug-28 19:33N 37°31' E 024°47'1312.7
2016-Aug-28 18:31N 37°27' E 025°03'1516.0
2016-Aug-28 17:33N 37°31' E 025°22'3 0.4
2016-Aug-28 09:33N 37°28' E 025°19'6619.6
2016-Aug-28 06:10N 37°36' E 023°56'1423.9
2016-Aug-28 05:34N 37°44' E 023°41'1312.9
2016-Aug-28 04:33N 37°57' E 023°38'0 0.0
2016-Aug-28 03:33N 37°57' E 023°38'0 0.0
2016-Aug-28 02:34N 37°57' E 023°38'0 0.0
2016-Aug-28 01:33N 37°57' E 023°38'0 0.0
2016-Aug-28 00:33N 37°57' E 023°38'0 0.0
2016-Aug-27 23:34N 37°57' E 023°38'0 0.0
2016-Aug-27 22:34N 37°57' E 023°38'0 0.0
2016-Aug-27 21:34N 37°57' E 023°38'1716.6
2016-Aug-27 20:34N 37°41' E 023°46'4823.9
2016-Aug-27 18:33N 37°32' E 024°46'1412.4
2016-Aug-27 17:23N 37°27' E 025°03'1315.1
2016-Aug-27 16:33N 37°28' E 025°18'1 0.1
2016-Aug-27 09:34N 37°28' E 025°19'6619.5
2016-Aug-27 06:09N 37°37' E 023°56'2415.3
2016-Aug-27 04:33N 37°57' E 023°38'0 0.0
2016-Aug-27 03:33N 37°57' E 023°38'0 0.0
2016-Aug-27 02:33N 37°57' E 023°38'0 0.0
2016-Aug-27 01:33N 37°57' E 023°38'0 0.0
2016-Aug-27 00:34N 37°57' E 023°38'0 0.0
2016-Aug-26 23:33N 37°57' E 023°38'1312.8
2016-Aug-26 22:34N 37°45' E 023°44'2423.8
2016-Aug-26 21:34N 37°34' E 024°10'2423.5
2016-Aug-26 20:31N 37°33' E 024°41'1815.3
2016-Aug-26 19:22N 37°27' E 025°02'1417.1
2016-Aug-26 18:34N 37°28' E 025°19'2 0.3
2016-Aug-26 10:13N 37°30' E 025°18'5 7.3
2016-Aug-26 09:30N 37°28' E 025°12'1813.5
2016-Aug-26 08:11N 37°31' E 024°50'4321.9
2016-Aug-26 06:12N 37°38' E 023°56'2414.3
2016-Aug-26 04:33N 37°57' E 023°38'0 0.0
2016-Aug-26 03:33N 37°57' E 023°38'0 0.0
2016-Aug-26 02:33N 37°57' E 023°38'0 0.0
2016-Aug-26 01:33N 37°57' E 023°38'0 0.0
2016-Aug-26 00:33N 37°57' E 023°38'0 0.0
2016-Aug-25 22:33N 37°57' E 023°38'0 0.0
2016-Aug-25 21:33N 37°57' E 023°38'10 9.8
2016-Aug-25 20:34N 37°47' E 023°42'2623.8
2016-Aug-25 19:28N 37°33' E 024°10'2323.6
2016-Aug-25 18:30N 37°32' E 024°39'1814.2
2016-Aug-25 17:14N 37°27' E 025°00'1522.7
2016-Aug-25 16:33N 37°28' E 025°19'1212.2
2016-Aug-25 15:34N 37°31' E 025°34'2 0.3
2016-Aug-25 10:32N 37°33' E 025°35'1313.7
2016-Aug-25 09:34N 37°28' E 025°19'2315.5
2016-Aug-25 08:06N 37°31' E 024°51'4423.4
2016-Aug-25 06:12N 37°37' E 023°56'2414.7
2016-Aug-25 04:33N 37°57' E 023°38'0 0.0
2016-Aug-25 03:34N 37°57' E 023°38'3 2.7
2016-Aug-25 02:34N 37°54' E 023°38'6922.5
2016-Aug-24 23:30N 37°31' E 024°60'2324.0
2016-Aug-24 22:33N 37°34' E 025°28'15410.8
2016-Aug-24 08:18N 40°06' E 024°52'1824.8
2016-Aug-24 07:33N 40°22' E 024°41'2424.3
2016-Aug-24 06:34N 40°44' E 024°28'12 5.8
2016-Aug-24 04:33N 40°56' E 024°25'2 2.3
2016-Aug-24 03:34N 40°54' E 024°25'2524.6
2016-Aug-24 02:34N 40°30' E 024°35'2625.1
2016-Aug-24 01:31N 40°07' E 024°51'16110.1
2016-Aug-23 09:34N 37°28' E 025°19'6620.0
2016-Aug-23 06:15N 37°36' E 023°57'1623.2
2016-Aug-23 05:34N 37°45' E 023°40'1211.7
2016-Aug-23 04:33N 37°57' E 023°38'0 0.0
2016-Aug-23 03:34N 37°57' E 023°38'0 0.0
2016-Aug-23 02:33N 37°57' E 023°38'0 0.0
2016-Aug-23 01:33N 37°57' E 023°38'0 0.0
2016-Aug-23 00:33N 37°57' E 023°38'0 0.0
2016-Aug-22 23:34N 37°57' E 023°38'1 1.5
2016-Aug-22 22:33N 37°55' E 023°37'2221.7
2016-Aug-22 21:33N 37°39' E 023°54'6220.6
2016-Aug-22 18:34N 37°27' E 025°11'1514.6
2016-Aug-22 17:33N 37°32' E 025°28'8 1.0
2016-Aug-22 09:33N 37°28' E 025°19'6519.7
2016-Aug-22 06:16N 37°36' E 023°58'1723.7
2016-Aug-22 05:34N 37°45' E 023°40'1211.8
2016-Aug-22 04:34N 37°57' E 023°38'0 0.0
2016-Aug-22 03:34N 37°57' E 023°38'0 0.0
2016-Aug-22 02:34N 37°57' E 023°38'0 0.0
2016-Aug-22 01:34N 37°57' E 023°38'0 0.0
2016-Aug-22 00:34N 37°57' E 023°38'0 0.0
2016-Aug-21 23:34N 37°57' E 023°38'1 1.4
2016-Aug-21 22:33N 37°56' E 023°37'2221.5
2016-Aug-21 21:33N 37°39' E 023°54'6019.9
2016-Aug-21 18:34N 37°27' E 025°08'1716.0
2016-Aug-21 17:31N 37°32' E 025°28'8 1.0
2016-Aug-21 09:34N 37°28' E 025°19'6719.7
2016-Aug-21 06:10N 37°37' E 023°56'1423.7
2016-Aug-21 05:34N 37°44' E 023°40'1312.7
2016-Aug-21 04:33N 37°57' E 023°38'0 0.0
2016-Aug-21 03:34N 37°57' E 023°38'0 0.0
2016-Aug-21 02:33N 37°57' E 023°38'0 0.0
2016-Aug-21 01:34N 37°57' E 023°38'0 0.0
2016-Aug-21 00:33N 37°57' E 023°38'0 0.0
2016-Aug-20 23:34N 37°57' E 023°38'0 0.0
2016-Aug-20 22:34N 37°57' E 023°38'0 0.0
2016-Aug-20 21:34N 37°57' E 023°38'1312.6
2016-Aug-20 20:34N 37°45' E 023°43'5023.7
2016-Aug-20 18:28N 37°31' E 024°44'1211.2
2016-Aug-20 17:20N 37°27' E 024°59'1721.3
2016-Aug-20 16:34N 37°28' E 025°19'15 2.5
2016-Aug-20 10:33N 37°35' E 025°36'1514.8
2016-Aug-20 09:34N 37°28' E 025°19'1812.7
2016-Aug-20 08:09N 37°29' E 024°57'4924.2
2016-Aug-20 06:07N 37°37' E 023°56'1424.1
2016-Aug-20 05:33N 37°43' E 023°41'1313.3
2016-Aug-20 04:33N 37°57' E 023°38'0 0.0
2016-Aug-20 03:33N 37°57' E 023°38'0 0.0
2016-Aug-20 02:33N 37°57' E 023°38'0 0.0
2016-Aug-20 01:33N 37°57' E 023°38'0 0.0
2016-Aug-20 00:33N 37°57' E 023°38'0 0.0
2016-Aug-19 23:33N 37°57' E 023°38'  

Dump ship's entire track history